createdAt,value
2017-12-10T00:01:30.770Z,2.37
2017-12-10T00:03:57.564Z,2.52
2017-12-10T00:06:25.226Z,2.49
2017-12-10T00:08:52.041Z,2.48
2017-12-10T00:11:18.861Z,2.42
2017-12-10T00:13:46.441Z,2.30
2017-12-10T00:16:14.054Z,2.37
2017-12-10T00:18:40.962Z,2.51
2017-12-10T00:21:07.806Z,2.39
2017-12-10T00:23:34.679Z,2.49
2017-12-10T00:26:01.568Z,2.41
2017-12-10T00:28:29.157Z,2.38
2017-12-10T00:30:56.108Z,2.33
2017-12-10T00:33:23.766Z,2.27
2017-12-10T00:35:50.738Z,2.23
2017-12-10T00:38:18.356Z,2.34
2017-12-10T00:40:45.313Z,2.35
2017-12-10T00:43:12.278Z,2.42
2017-12-10T00:45:39.120Z,2.39
2017-12-10T00:48:06.739Z,2.41
2017-12-10T00:50:33.606Z,2.31
2017-12-10T00:53:00.444Z,2.40
2017-12-10T00:55:27.309Z,2.36
2017-12-10T00:57:54.165Z,2.36
2017-12-10T01:00:21.188Z,2.33
2017-12-10T01:02:48.696Z,2.30
2017-12-10T01:05:15.563Z,2.30
2017-12-10T01:07:42.432Z,2.43
2017-12-10T01:10:09.283Z,2.34
2017-12-10T01:12:36.147Z,2.31
2017-12-10T01:15:03.065Z,2.47
2017-12-10T01:17:29.921Z,2.37
2017-12-10T01:19:56.886Z,2.35
2017-12-10T01:22:25.417Z,2.35
2017-12-10T01:24:54.522Z,2.38
2017-12-10T01:27:22.575Z,2.39
2017-12-10T01:29:49.505Z,2.49
2017-12-10T01:32:16.343Z,2.44
2017-12-10T01:34:43.955Z,2.36
2017-12-10T01:37:11.854Z,2.34
2017-12-10T01:39:39.148Z,2.37
2017-12-10T01:42:05.984Z,2.38
2017-12-10T01:44:33.810Z,2.45
2017-12-10T01:47:00.825Z,2.34
2017-12-10T01:49:27.733Z,2.34
2017-12-10T01:51:55.421Z,2.38
2017-12-10T01:54:25.665Z,2.32
2017-12-10T01:56:54.251Z,2.28
2017-12-10T01:59:23.858Z,2.43
2017-12-10T02:01:53.259Z,2.43
2017-12-10T02:04:20.232Z,2.34
2017-12-10T02:06:47.086Z,2.25
2017-12-10T02:09:14.239Z,2.27
2017-12-10T02:11:41.153Z,2.35
2017-12-10T02:14:08.941Z,2.25
2017-12-10T02:16:38.874Z,2.31
2017-12-10T02:19:06.388Z,2.30
2017-12-10T02:21:33.216Z,2.31
2017-12-10T02:24:00.836Z,2.33
2017-12-10T02:26:27.680Z,2.26
2017-12-10T02:28:54.516Z,2.17
2017-12-10T02:31:21.776Z,2.21
2017-12-10T02:33:48.691Z,2.30
2017-12-10T02:36:15.547Z,2.04
2017-12-10T02:38:42.404Z,2.24
2017-12-10T02:41:09.254Z,2.32
2017-12-10T02:43:36.123Z,2.29
2017-12-10T02:46:03.020Z,2.21
2017-12-10T02:48:29.903Z,2.28
2017-12-10T02:50:56.752Z,2.07
2017-12-10T02:53:23.596Z,2.21
2017-12-10T02:55:50.436Z,2.18
2017-12-10T02:58:17.303Z,2.19
2017-12-10T03:00:44.148Z,2.05
2017-12-10T03:03:10.992Z,1.97
2017-12-10T03:05:38.630Z,1.89
2017-12-10T03:08:05.455Z,2.08
2017-12-10T03:10:32.355Z,2.16
2017-12-10T03:12:59.218Z,2.23
2017-12-10T03:15:26.033Z,2.07
2017-12-10T03:17:52.881Z,2.23
2017-12-10T03:20:19.737Z,2.11
2017-12-10T03:22:47.338Z,2.07
2017-12-10T03:25:14.204Z,2.16
2017-12-10T03:27:41.034Z,2.25
2017-12-10T03:30:07.910Z,2.20
2017-12-10T03:32:35.473Z,2.05
2017-12-10T03:35:02.306Z,2.24
2017-12-10T03:37:29.138Z,2.22
2017-12-10T03:39:55.964Z,1.82
2017-12-10T03:42:22.796Z,2.04
2017-12-10T03:44:49.628Z,2.15
2017-12-10T03:47:16.483Z,2.14
2017-12-10T03:49:43.331Z,2.07
2017-12-10T03:52:10.207Z,2.01
2017-12-10T03:54:37.030Z,2.07
2017-12-10T03:57:04.612Z,1.96
2017-12-10T03:59:32.182Z,2.12
2017-12-10T04:01:59.023Z,2.05
2017-12-10T04:04:25.855Z,2.13
2017-12-10T04:06:52.688Z,1.98
2017-12-10T04:09:19.522Z,2.02
2017-12-10T04:11:46.367Z,2.02
2017-12-10T04:14:13.205Z,1.92
2017-12-10T04:16:40.092Z,2.04
2017-12-10T04:19:06.935Z,2.01
2017-12-10T04:21:33.770Z,1.84
2017-12-10T04:24:00.638Z,2.06
2017-12-10T04:26:27.474Z,2.08
2017-12-10T04:28:54.277Z,2.01
2017-12-10T04:31:21.086Z,2.00
2017-12-10T04:33:48.653Z,2.12
2017-12-10T04:36:15.484Z,2.07
2017-12-10T04:38:42.297Z,1.95
2017-12-10T04:41:09.129Z,1.98
2017-12-10T04:43:35.967Z,2.04
2017-12-10T04:46:02.834Z,1.87
2017-12-10T04:48:29.689Z,2.06
2017-12-10T04:50:56.531Z,2.07
2017-12-10T04:53:23.374Z,1.98
2017-12-10T04:55:50.187Z,1.81
2017-12-10T04:58:16.985Z,2.12
2017-12-10T05:00:43.837Z,1.86
2017-12-10T05:03:11.397Z,1.83
2017-12-10T05:05:38.253Z,2.00
2017-12-10T05:08:05.110Z,2.08
2017-12-10T05:10:31.978Z,2.08
2017-12-10T05:12:58.806Z,2.05
2017-12-10T05:15:25.681Z,2.07
2017-12-10T05:17:52.521Z,2.13
2017-12-10T05:20:19.313Z,2.03
2017-12-10T05:22:46.130Z,2.04
2017-12-10T05:25:12.994Z,2.03
2017-12-10T05:27:39.848Z,1.96
2017-12-10T05:30:06.687Z,1.98
2017-12-10T05:32:34.245Z,2.09
2017-12-10T05:35:01.029Z,2.12
2017-12-10T05:37:27.850Z,2.11
2017-12-10T05:39:54.672Z,2.09
2017-12-10T05:42:21.461Z,2.08
2017-12-10T05:44:48.277Z,2.01
2017-12-10T05:47:15.111Z,2.07
2017-12-10T05:49:42.030Z,2.08
2017-12-10T05:52:08.853Z,1.91
2017-12-10T05:54:36.460Z,2.08
2017-12-10T05:57:03.280Z,2.07
2017-12-10T05:59:30.820Z,1.98
2017-12-10T06:01:57.688Z,1.95
2017-12-10T06:04:24.515Z,2.07
2017-12-10T06:06:51.322Z,1.99
2017-12-10T06:09:18.132Z,1.95
2017-12-10T06:11:44.958Z,2.05
2017-12-10T06:14:11.772Z,1.99
2017-12-10T06:16:38.610Z,2.07
2017-12-10T06:19:05.444Z,2.00
2017-12-10T06:21:33.078Z,1.99
2017-12-10T06:23:59.908Z,2.09
2017-12-10T06:26:26.746Z,2.07
2017-12-10T06:28:54.313Z,2.04
2017-12-10T06:31:21.139Z,2.04
2017-12-10T06:33:47.982Z,2.01
2017-12-10T06:36:14.802Z,1.89
2017-12-10T06:38:42.362Z,1.89
2017-12-10T06:41:09.181Z,2.01
2017-12-10T06:43:36.013Z,2.01
2017-12-10T06:46:03.684Z,2.03
2017-12-10T06:48:30.502Z,2.05
2017-12-10T06:50:57.401Z,1.91
2017-12-10T06:53:24.234Z,1.96
2017-12-10T06:55:51.086Z,2.01
2017-12-10T06:58:17.937Z,1.92
2017-12-10T07:00:44.941Z,1.87
2017-12-10T07:03:11.815Z,1.90
2017-12-10T07:05:39.383Z,1.86
2017-12-10T07:08:06.219Z,2.04
2017-12-10T07:10:33.070Z,1.96
2017-12-10T07:12:59.896Z,1.82
2017-12-10T07:15:26.720Z,1.89
2017-12-10T07:17:53.579Z,1.94
2017-12-10T07:20:20.406Z,1.85
2017-12-10T07:22:47.251Z,1.87
2017-12-10T07:25:14.106Z,1.87
2017-12-10T07:27:40.935Z,1.87
2017-12-10T07:30:07.765Z,1.86
2017-12-10T07:32:34.624Z,1.88
2017-12-10T07:35:01.483Z,1.93
2017-12-10T07:37:28.297Z,1.72
2017-12-10T07:39:55.865Z,1.89
2017-12-10T07:42:23.423Z,1.86
2017-12-10T07:44:50.250Z,1.82
2017-12-10T07:47:17.116Z,1.95
2017-12-10T07:49:43.979Z,1.91
2017-12-10T07:52:10.816Z,1.79
2017-12-10T07:54:37.731Z,1.89
2017-12-10T07:57:04.551Z,1.81
2017-12-10T07:59:31.427Z,1.82
2017-12-10T08:01:58.233Z,1.84
2017-12-10T08:04:25.870Z,1.89
2017-12-10T08:06:52.748Z,1.91
2017-12-10T08:09:19.519Z,1.85
2017-12-10T08:11:46.377Z,1.85
2017-12-10T08:14:13.253Z,1.82
2017-12-10T08:16:40.842Z,1.82
2017-12-10T08:19:07.688Z,1.79
2017-12-10T08:21:34.598Z,1.88
2017-12-10T08:24:01.469Z,1.85
2017-12-10T08:26:28.322Z,1.88
2017-12-10T08:28:55.158Z,1.86
2017-12-10T08:31:22.020Z,1.87
2017-12-10T08:33:48.924Z,1.91
2017-12-10T08:36:15.740Z,1.91
2017-12-10T08:38:42.548Z,1.93
2017-12-10T08:41:09.420Z,1.93
2017-12-10T08:43:36.273Z,1.88
2017-12-10T08:46:03.078Z,1.88
2017-12-10T08:48:30.641Z,1.95
2017-12-10T08:50:58.195Z,1.92
2017-12-10T08:53:25.037Z,1.92
2017-12-10T08:55:51.890Z,2.00
2017-12-10T08:58:18.713Z,1.93
2017-12-10T09:00:45.614Z,1.95
2017-12-10T09:03:12.824Z,1.98
2017-12-10T09:05:40.538Z,1.97
2017-12-10T09:08:08.109Z,1.93
2017-12-10T09:10:35.674Z,1.94
2017-12-10T09:13:03.242Z,1.95
2017-12-10T09:15:30.108Z,1.96
2017-12-10T09:17:57.721Z,1.98
2017-12-10T09:20:24.550Z,1.98
2017-12-10T09:22:52.107Z,1.96
2017-12-10T09:25:18.971Z,2.04
2017-12-10T09:27:45.834Z,2.14
2017-12-10T09:30:12.898Z,2.07
2017-12-10T09:32:39.729Z,2.24
2017-12-10T09:35:06.558Z,2.13
2017-12-10T09:37:33.393Z,2.10
2017-12-10T09:40:00.216Z,2.07
2017-12-10T09:42:27.054Z,2.06
2017-12-10T09:44:53.908Z,2.07
2017-12-10T09:47:20.735Z,2.06
2017-12-10T09:49:47.538Z,2.06
2017-12-10T09:52:14.344Z,2.07
2017-12-10T09:54:41.168Z,2.13
2017-12-10T09:57:08.049Z,2.06
2017-12-10T09:59:34.861Z,2.13
2017-12-10T10:02:01.748Z,2.06
2017-12-10T10:04:29.312Z,2.12
2017-12-10T10:06:56.156Z,2.12
2017-12-10T10:09:23.723Z,2.09
2017-12-10T10:11:51.312Z,2.09
2017-12-10T10:14:18.886Z,2.10
2017-12-10T10:16:46.454Z,2.11
2017-12-10T10:19:14.033Z,2.12
2017-12-10T10:21:41.619Z,2.09
2017-12-10T10:24:09.454Z,2.06
2017-12-10T10:26:36.373Z,2.09
2017-12-10T10:29:03.243Z,2.09
2017-12-10T10:31:30.058Z,2.09
2017-12-10T10:33:56.887Z,2.09
2017-12-10T10:36:23.753Z,2.08
2017-12-10T10:38:50.607Z,2.09
2017-12-10T10:41:17.450Z,2.03
2017-12-10T10:43:44.278Z,2.05
2017-12-10T10:46:11.939Z,2.02
2017-12-10T10:48:38.728Z,2.01
2017-12-10T10:51:06.350Z,2.06
2017-12-10T10:53:33.199Z,2.03
2017-12-10T10:56:00.018Z,1.95
2017-12-10T10:58:26.856Z,1.93
2017-12-10T11:00:53.750Z,1.97
2017-12-10T11:03:21.307Z,1.98
2017-12-10T11:05:48.187Z,1.96
2017-12-10T11:08:15.039Z,1.99
2017-12-10T11:10:41.874Z,1.93
2017-12-10T11:13:08.736Z,2.04
2017-12-10T11:15:35.612Z,1.94
2017-12-10T11:18:02.443Z,1.96
2017-12-10T11:20:30.007Z,1.97
2017-12-10T11:22:56.859Z,1.91
2017-12-10T11:25:23.702Z,1.97
2017-12-10T11:27:50.549Z,1.90
2017-12-10T11:30:17.383Z,1.87
2017-12-10T11:32:44.228Z,1.90
2017-12-10T11:35:11.056Z,1.73
2017-12-10T11:37:37.884Z,1.77
2017-12-10T11:40:05.693Z,1.87
2017-12-10T11:42:32.567Z,1.88
2017-12-10T11:44:59.428Z,1.76
2017-12-10T11:47:26.263Z,1.86
2017-12-10T11:49:53.110Z,1.70
2017-12-10T11:52:19.972Z,1.77
2017-12-10T11:54:46.810Z,1.79
2017-12-10T11:57:13.749Z,1.82
2017-12-10T11:59:41.310Z,1.68
2017-12-10T12:02:08.879Z,1.59
2017-12-10T12:04:36.496Z,1.59
2017-12-10T12:07:03.443Z,1.63
2017-12-10T12:09:30.417Z,1.65
2017-12-10T12:11:57.262Z,1.63
2017-12-10T12:14:24.097Z,1.56
2017-12-10T12:16:52.500Z,1.64
2017-12-10T12:19:20.148Z,1.68
2017-12-10T12:21:46.962Z,1.66
2017-12-10T12:24:13.822Z,1.71
2017-12-10T12:26:40.896Z,1.47
2017-12-10T12:29:08.161Z,1.48
2017-12-10T12:31:35.002Z,1.53
2017-12-10T12:34:02.642Z,1.64
2017-12-10T12:36:29.508Z,1.62
2017-12-10T12:38:56.351Z,1.56
2017-12-10T12:41:23.445Z,1.48
2017-12-10T12:43:50.388Z,1.63
2017-12-10T12:46:17.295Z,1.49
2017-12-10T12:48:44.878Z,1.46
2017-12-10T12:51:12.551Z,1.49
2017-12-10T12:53:40.145Z,1.52
2017-12-10T12:56:07.349Z,1.42
2017-12-10T12:58:34.240Z,1.49
2017-12-10T13:01:01.161Z,1.51
2017-12-10T13:03:29.532Z,1.39
2017-12-10T13:05:57.100Z,1.45
2017-12-10T13:08:25.755Z,1.45
2017-12-10T13:10:55.396Z,1.56
2017-12-10T13:13:23.251Z,1.59
2017-12-10T13:15:50.431Z,1.49
2017-12-10T13:18:17.830Z,1.54
2017-12-10T13:20:45.222Z,1.47
2017-12-10T13:23:14.022Z,1.53
2017-12-10T13:25:42.690Z,1.58
2017-12-10T13:28:10.953Z,1.42
2017-12-10T13:30:37.856Z,1.38
2017-12-10T13:33:04.987Z,1.35
2017-12-10T13:35:32.323Z,1.48
2017-12-10T13:37:59.251Z,1.40
2017-12-10T13:40:26.230Z,1.42
2017-12-10T13:42:54.813Z,1.36
2017-12-10T13:45:21.739Z,1.40
2017-12-10T13:47:48.581Z,1.38
2017-12-10T13:50:16.154Z,1.44
2017-12-10T13:52:43.185Z,1.34
2017-12-10T13:55:10.104Z,1.44
2017-12-10T13:57:37.691Z,1.57
2017-12-10T14:00:05.231Z,1.50
2017-12-10T14:02:32.832Z,1.55
2017-12-10T14:05:00.427Z,1.47
2017-12-10T14:07:27.283Z,1.52
2017-12-10T14:09:54.325Z,1.58
2017-12-10T14:12:21.258Z,1.66
2017-12-10T14:14:48.069Z,1.64
2017-12-10T14:17:15.672Z,1.53
2017-12-10T14:19:42.535Z,1.57
2017-12-10T14:22:09.395Z,1.68
2017-12-10T14:24:36.370Z,1.69
2017-12-10T14:27:03.240Z,1.66
2017-12-10T14:29:30.093Z,1.65
2017-12-10T14:31:56.943Z,1.64
2017-12-10T14:34:24.114Z,1.74
2017-12-10T14:36:50.942Z,1.72
2017-12-10T14:39:18.582Z,1.70
2017-12-10T14:41:46.777Z,1.73
2017-12-10T14:44:14.428Z,1.74
2017-12-10T14:46:41.376Z,1.86
2017-12-10T14:49:08.247Z,1.92
2017-12-10T14:51:35.064Z,1.93
2017-12-10T14:54:02.083Z,1.96
2017-12-10T14:56:29.058Z,1.99
2017-12-10T14:58:55.941Z,1.96
2017-12-10T15:01:22.828Z,2.09
2017-12-10T15:03:50.584Z,2.07
2017-12-10T15:06:17.451Z,2.21
2017-12-10T15:08:44.312Z,2.12
2017-12-10T15:11:11.246Z,2.20
2017-12-10T15:13:38.207Z,2.21
2017-12-10T15:16:05.109Z,2.19
2017-12-10T15:18:31.973Z,2.22
2017-12-10T15:20:58.819Z,2.25
2017-12-10T15:23:36.830Z,2.32
2017-12-10T15:26:03.869Z,2.42
2017-12-10T15:28:30.823Z,2.43
2017-12-10T15:30:57.662Z,2.46
2017-12-10T15:33:25.411Z,2.39
2017-12-10T15:35:52.822Z,2.38
2017-12-10T15:38:20.527Z,2.43
2017-12-10T15:40:48.937Z,2.39
2017-12-10T15:43:16.960Z,2.39
2017-12-10T15:45:45.611Z,2.41
2017-12-10T15:48:14.827Z,2.47
2017-12-10T15:50:44.468Z,2.63
2017-12-10T15:53:13.018Z,2.48
2017-12-10T15:55:41.987Z,2.53
2017-12-10T15:58:10.878Z,2.55
2017-12-10T16:00:39.831Z,2.95
2017-12-10T16:03:09.589Z,2.87
2017-12-10T16:05:38.217Z,2.89
2017-12-10T16:08:05.371Z,2.96
2017-12-10T16:10:34.277Z,2.83
2017-12-10T16:13:03.217Z,2.74
2017-12-10T16:15:31.907Z,2.93
2017-12-10T16:18:02.599Z,2.81
2017-12-10T16:20:32.351Z,2.94
2017-12-10T16:23:01.343Z,3.09
2017-12-10T16:25:29.624Z,3.38
2017-12-10T16:27:59.899Z,3.40
2017-12-10T16:30:29.511Z,3.47
2017-12-10T16:32:58.361Z,3.54
2017-12-10T16:35:27.343Z,3.56
2017-12-10T16:37:56.986Z,3.62
2017-12-10T16:40:26.102Z,3.72
2017-12-10T16:42:56.434Z,3.68
2017-12-10T16:45:25.792Z,3.82
2017-12-10T16:47:54.757Z,3.75
2017-12-10T16:50:24.980Z,3.85
2017-12-10T16:52:54.949Z,3.80
2017-12-10T16:55:24.198Z,3.71
2017-12-10T16:57:53.445Z,3.87
2017-12-10T17:00:23.375Z,3.85
2017-12-10T17:02:52.479Z,3.91
2017-12-10T17:05:21.673Z,3.83
2017-12-10T17:07:51.651Z,3.88
2017-12-10T17:10:21.601Z,3.89
2017-12-10T17:12:50.798Z,3.87
2017-12-10T17:15:20.686Z,3.76
2017-12-10T17:17:49.757Z,4.10
2017-12-10T17:20:18.792Z,3.92
2017-12-10T17:22:47.721Z,3.97
2017-12-10T17:25:17.363Z,3.91
2017-12-10T17:27:46.382Z,4.04
2017-12-10T17:30:16.288Z,3.84
2017-12-10T17:32:45.240Z,3.99
2017-12-10T17:35:14.396Z,3.94
2017-12-10T17:37:43.398Z,4.04
2017-12-10T17:40:12.392Z,4.07
2017-12-10T17:42:42.546Z,3.96
2017-12-10T17:45:11.567Z,3.97
2017-12-10T17:47:40.272Z,4.01
2017-12-10T17:50:09.464Z,4.07
2017-12-10T17:52:38.489Z,3.95
2017-12-10T17:55:07.642Z,4.00
2017-12-10T17:57:36.611Z,4.02
2017-12-10T18:00:05.488Z,4.01
2017-12-10T18:02:35.220Z,4.05
2017-12-10T18:05:04.929Z,4.06
2017-12-10T18:07:33.860Z,4.25
2017-12-10T18:10:02.963Z,4.21
2017-12-10T18:12:32.752Z,4.15
2017-12-10T18:15:01.733Z,4.15
2017-12-10T18:17:30.668Z,4.43
2017-12-10T18:19:59.626Z,4.24
2017-12-10T18:22:29.374Z,4.30
2017-12-10T18:24:59.321Z,4.41
2017-12-10T18:27:28.369Z,4.59
2017-12-10T18:29:56.821Z,4.95
2017-12-10T18:32:25.703Z,4.56
2017-12-10T18:34:54.308Z,4.48
2017-12-10T18:37:23.894Z,4.51
2017-12-10T18:39:51.691Z,4.78
2017-12-10T18:42:20.664Z,4.46
2017-12-10T18:44:49.856Z,4.53
2017-12-10T18:47:18.658Z,4.69
2017-12-10T18:49:47.512Z,4.65
2017-12-10T18:52:16.897Z,4.62
2017-12-10T18:54:45.989Z,4.62
2017-12-10T18:57:15.211Z,4.65
2017-12-10T18:59:44.204Z,4.75
2017-12-10T19:02:13.199Z,4.89
2017-12-10T19:04:42.039Z,4.65
2017-12-10T19:07:11.938Z,4.73
2017-12-10T19:09:40.920Z,4.76
2017-12-10T19:12:09.838Z,5.17
2017-12-10T19:14:38.783Z,5.06
2017-12-10T19:17:07.933Z,5.05
2017-12-10T19:19:37.060Z,5.03
2017-12-10T19:22:06.115Z,5.24
2017-12-10T19:24:36.645Z,5.06
2017-12-10T19:27:05.572Z,5.23
2017-12-10T19:29:34.413Z,5.34
2017-12-10T19:32:03.459Z,5.23
2017-12-10T19:34:32.176Z,5.51
2017-12-10T19:37:01.224Z,5.46
2017-12-10T19:39:30.098Z,5.59
2017-12-10T19:41:59.273Z,5.47
2017-12-10T19:44:29.273Z,5.38
2017-12-10T19:46:59.123Z,5.57
2017-12-10T19:49:28.343Z,5.48
2017-12-10T19:51:57.311Z,5.45
2017-12-10T19:54:26.336Z,5.45
2017-12-10T19:56:56.100Z,5.32
2017-12-10T19:59:25.186Z,5.26
2017-12-10T20:01:54.793Z,5.28
2017-12-10T20:04:24.343Z,5.36
2017-12-10T20:06:54.327Z,5.31
2017-12-10T20:09:24.297Z,5.38
2017-12-10T20:11:53.371Z,5.46
2017-12-10T20:14:23.160Z,5.69
2017-12-10T20:16:52.029Z,5.50
2017-12-10T20:19:20.882Z,5.50
2017-12-10T20:21:50.544Z,5.71
2017-12-10T20:24:19.585Z,5.75
2017-12-10T20:26:48.894Z,5.82
2017-12-10T20:29:19.693Z,5.71
2017-12-10T20:31:48.717Z,5.85
2017-12-10T20:34:17.480Z,5.86
2017-12-10T20:36:46.621Z,5.87
2017-12-10T20:39:15.947Z,6.13
2017-12-10T20:41:44.906Z,5.97
2017-12-10T20:44:14.499Z,5.93
2017-12-10T20:46:43.796Z,5.57
2017-12-10T20:49:12.911Z,5.42
2017-12-10T20:51:42.054Z,5.34
2017-12-10T20:54:10.595Z,5.21
2017-12-10T20:56:40.211Z,5.20
2017-12-10T20:59:09.053Z,5.15
2017-12-10T21:01:37.699Z,5.11
2017-12-10T21:04:06.744Z,5.06
2017-12-10T21:06:35.567Z,5.03
2017-12-10T21:09:05.089Z,5.05
2017-12-10T21:11:34.284Z,5.05
2017-12-10T21:14:03.486Z,5.00
2017-12-10T21:16:33.136Z,5.04
2017-12-10T21:19:02.235Z,5.01
2017-12-10T21:21:32.602Z,4.99
2017-12-10T21:24:00.668Z,4.95
2017-12-10T21:26:29.639Z,4.92
2017-12-10T21:28:58.598Z,4.97
2017-12-10T21:31:27.597Z,4.91
2017-12-10T21:33:55.686Z,4.92
2017-12-10T21:36:22.802Z,4.94
2017-12-10T21:38:50.451Z,4.86
2017-12-10T21:41:17.346Z,4.80
2017-12-10T21:43:44.205Z,4.77
2017-12-10T21:46:11.426Z,4.67
2017-12-10T21:48:38.495Z,4.68
2017-12-10T21:51:05.392Z,4.63
2017-12-10T21:53:32.318Z,4.61
2017-12-10T21:55:59.190Z,4.62
2017-12-10T21:58:26.105Z,4.57
2017-12-10T22:00:54.059Z,4.52
2017-12-10T22:03:21.364Z,4.54
2017-12-10T22:05:49.151Z,4.48
2017-12-10T22:08:16.050Z,4.49
2017-12-10T22:10:42.956Z,4.56
2017-12-10T22:13:09.795Z,4.53
2017-12-10T22:15:36.714Z,4.49
2017-12-10T22:18:03.549Z,4.46
2017-12-10T22:20:30.439Z,4.43
2017-12-10T22:22:57.376Z,4.38
2017-12-10T22:25:25.350Z,4.35
2017-12-10T22:27:52.276Z,4.34
2017-12-10T22:30:19.174Z,4.37
2017-12-10T22:32:46.190Z,4.30
2017-12-10T22:35:13.111Z,4.32
2017-12-10T22:37:39.978Z,4.27
2017-12-10T22:40:07.580Z,4.26
2017-12-10T22:42:35.245Z,4.18
2017-12-10T22:45:02.292Z,4.21
2017-12-10T22:47:30.140Z,4.17
2017-12-10T22:49:57.274Z,4.16
2017-12-10T22:52:24.820Z,4.19
2017-12-10T22:54:51.818Z,4.12
2017-12-10T22:57:19.329Z,4.13
2017-12-10T22:59:46.155Z,4.14
2017-12-10T23:02:13.760Z,4.13
2017-12-10T23:04:40.606Z,4.09
2017-12-10T23:07:07.661Z,4.08
2017-12-10T23:09:34.435Z,4.02
2017-12-10T23:12:01.278Z,4.02
2017-12-10T23:14:40.426Z,4.06
2017-12-10T23:17:07.710Z,4.04
2017-12-10T23:19:36.641Z,3.99
2017-12-10T23:22:03.446Z,4.00
2017-12-10T23:24:30.259Z,3.98
2017-12-10T23:26:58.478Z,4.01
2017-12-10T23:29:25.827Z,3.98
2017-12-10T23:31:52.907Z,3.94
2017-12-10T23:34:21.707Z,3.98
2017-12-10T23:36:49.765Z,3.88
2017-12-10T23:39:16.894Z,3.90
2017-12-10T23:41:43.663Z,3.93
2017-12-10T23:44:10.445Z,3.84
2017-12-10T23:46:37.269Z,3.87
2017-12-10T23:49:04.049Z,3.79
2017-12-10T23:51:31.680Z,3.86
2017-12-10T23:53:58.676Z,3.79
2017-12-10T23:56:26.937Z,3.83
2017-12-10T23:58:55.552Z,3.76
